Hlavní strana
METAR-TAF:

METAR-TAF

Letiště :

Anderson, Indiana, Spojené státy americké

zeměpisná šířka: 40-07N, zeměpisná délka: 085-37W, výška: 280 m

Aktuální stav počasí

Zpráva byla vytvořena před 1 hodinou a 22 minutami, v 17:59 UTC
Bezvětří
Teplota 15°C
Vlhkost vzduchu 55%
Tlak 1019 hPa
Viditelnost: 16.1 km
Jasno

METAR: KAID 061759Z 00000KT 10SM CLR 15/06 A3009

Čas: 15:21 (19:21 UTC)


TAF: chybějící

Stav a předpovědi počasí z více než 4 000 letišť (zprávy METAR a TAF).

Červené a žluté tečky na mapě představují dostupné meteorologické stanice.

Když kurzor umístíte na tečku, zobrazí se název stanice.

Pak kliknutím zobrazíte stav a předpověď počasí.

Chcete-li změnit mapu, kliknutím na zelené tlačítko se znaménkem +mapu přiblížíte, kliknutím na zelené tlačítko se znaménkem – mapu oddálíte a kliknutím na zelené šipky přejdete na sousední mapy.


METAR-TAF: